createdAt,value
2022-08-04T00:12:27.681Z,0.50
2022-08-04T00:26:27.550Z,0.60
2022-08-04T00:37:43.139Z,0.55
2022-08-04T00:50:42.679Z,0.70
2022-08-04T01:04:43.520Z,0.50
2022-08-04T01:18:43.577Z,0.60
2022-08-04T01:32:43.540Z,0.60
2022-08-04T01:46:43.772Z,0.60
2022-08-04T02:00:43.768Z,0.60
2022-08-04T02:14:43.811Z,0.50
2022-08-04T02:28:43.838Z,0.50
2022-08-04T02:42:43.949Z,0.60
2022-08-04T02:56:43.884Z,0.60
2022-08-04T03:10:43.889Z,0.60
2022-08-04T03:24:43.899Z,0.60
2022-08-04T03:38:43.908Z,0.60
2022-08-04T03:53:43.911Z,0.70
2022-08-04T04:08:45.115Z,0.60
2022-08-04T04:23:43.898Z,0.70
2022-08-04T04:38:43.894Z,0.70
2022-08-04T04:53:43.929Z,0.60
2022-08-04T05:08:46.319Z,0.70
2022-08-04T05:23:43.929Z,0.70
2022-08-04T05:38:43.949Z,0.70
2022-08-04T05:47:30.752Z,0.70
2022-08-04T06:01:30.643Z,0.70
2022-08-04T06:16:30.879Z,0.70
2022-08-04T06:32:29.101Z,0.70
2022-08-04T06:46:31.103Z,0.70
2022-08-04T07:01:31.148Z,0.70
2022-08-04T07:16:31.188Z,0.70
2022-08-04T07:22:34.708Z,0.65
2022-08-04T07:36:39.584Z,0.60
2022-08-04T07:51:34.396Z,0.60
2022-08-04T08:06:35.642Z,0.70
2022-08-04T08:21:34.220Z,0.80
2022-08-04T08:36:34.244Z,0.70
2022-08-04T08:51:34.611Z,0.60
2022-08-04T09:06:34.429Z,0.70
2022-08-04T09:21:34.592Z,0.80
2022-08-04T09:36:34.547Z,0.80
2022-08-04T09:51:56.670Z,0.70
2022-08-04T10:07:34.630Z,0.70
2022-08-04T10:23:55.048Z,0.70
2022-08-04T10:39:42.446Z,0.90
2022-08-04T10:56:05.434Z,0.90
2022-08-04T11:11:57.336Z,0.70
2022-08-04T11:26:34.885Z,0.90
2022-08-04T11:41:34.898Z,0.80
2022-08-04T11:57:35.532Z,0.80
2022-08-04T12:13:34.957Z,0.90
2022-08-04T12:28:52.907Z,0.80
2022-08-04T12:43:34.911Z,0.90
2022-08-04T12:58:41.749Z,0.90
2022-08-04T13:13:34.910Z,1.00
2022-08-04T13:28:34.944Z,1.00
2022-08-04T13:43:48.285Z,0.90
2022-08-04T13:58:39.093Z,0.90
2022-08-04T14:13:40.937Z,1.10
2022-08-04T14:29:00.093Z,1.00
2022-08-04T14:43:35.194Z,1.10
2022-08-04T14:58:38.640Z,1.00
2022-08-04T15:14:36.583Z,1.00
2022-08-04T15:29:59.932Z,1.00
2022-08-04T15:44:35.337Z,1.10
2022-08-04T16:00:35.349Z,1.10
2022-08-04T16:15:35.345Z,0.90
2022-08-04T16:31:35.349Z,1.00
2022-08-04T16:46:35.347Z,1.00
2022-08-04T17:01:35.409Z,1.00
2022-08-04T17:16:35.354Z,1.10
2022-08-04T17:31:35.357Z,0.80
2022-08-04T17:46:35.364Z,0.90
2022-08-04T18:01:35.367Z,0.90
2022-08-04T18:16:35.391Z,1.00
2022-08-04T18:31:35.448Z,1.00
2022-08-04T18:46:35.489Z,0.90
2022-08-04T19:02:09.520Z,0.80
2022-08-04T19:16:35.510Z,0.80
2022-08-04T19:30:35.501Z,0.80
2022-08-04T19:44:35.514Z,0.90
2022-08-04T19:58:35.529Z,0.80
2022-08-04T20:12:35.520Z,0.70
2022-08-04T20:26:35.539Z,0.70
2022-08-04T20:40:35.518Z,0.90
2022-08-04T20:54:35.539Z,0.70
2022-08-04T21:08:35.577Z,0.80
2022-08-04T21:22:35.556Z,0.90
2022-08-04T21:36:35.539Z,0.80
2022-08-04T21:50:35.541Z,0.80
2022-08-04T22:04:35.814Z,0.90
2022-08-04T22:18:36.766Z,1.00
2022-08-04T22:32:35.859Z,1.00
2022-08-04T22:46:35.882Z,0.80
2022-08-04T23:00:36.016Z,0.80
2022-08-04T23:14:36.043Z,0.70
2022-08-04T23:28:36.157Z,1.00
2022-08-04T23:42:36.001Z,0.80
2022-08-04T23:56:37.819Z,0.70
